Terminal Aerodrome Forecast
Issued by NWS

Home | Current Version | Previous Version | Text Only | Print | Product List | Glossary On
Versions: 1 2 3 4 5 6 7 8 9 10 11 12 13 14 15
000
FTUS46 KSEW 292351
TAFBLI
TAF
KBLI 292351Z 3000/3024 16030G40KT P6SM SCT040 BKN050 OVC100
     FM300300 16012G20KT P6SM -RA BKN025 OVC040
     FM300900 16008KT P6SM -SHRA SCT030 OVC050
     FM301500 16008KT P6SM BKN025 OVC060
     FM302000 17015KT P6SM BKN050 OVC080=

USA.gov is the U.S. government's official web portal to all federal, state and local government web resources and services.